KCVC

Covington Municipal Airport

Atlanta, Georgia, USA
METAR KCVC 220017Z AUTO 00000KT 10SM CLR 22/18 A3035 RMK AO2
Observed Flight Rules
Feb-22 @ 00:17 UTC (4 hours ago) Visual Flight Rules
Wind Visibility Clouds
Calm 10 miles
  • Clear skies
Temperatures Readings
Current 22°C / 72°F
Dewpoint 18°C / 64°F
Humidity 78%
Altimeter 30.35" Hg
Pressure 1028 hPa
Elevation 247
METAR KCVC 220017Z AUTO 00000KT 10SM CLR 22/18 A3035 RMK AO2
Observed Flight Rules
Feb-22 @ 00:17 UTC
(4 hours ago)
VFR
Wind Visibility
Calm 10 miles
Clouds
  • Clear skies
Temperature Dewpoint
22°C / 72°F 18°C / 64°F
Humidity Altimeter Pressure
78% 30.35" Hg 1028 hPa